Time;durP1;ratioP1;P1;durP2;ratioP2;P2;SDS_P1;SDS_P2;PMS_P1;PMS_P2;Temp;Humidity;BMP_temperature;BMP_pressure;BME280_temperature;BME280_humidity;BME280_pressure;Samples;Min_cycle;Max_cycle;Signal;HPM_P1;HPM_P2
2023/07/29 00:01:05;;;;;;;10.63;4.00;;;19.00;1.00;;;;;;5031382;28;20697;-87
2023/07/29 00:03:31;;;;;;;10.47;4.23;;;19.10;1.00;;;;;;5030854;28;20445;-87
2023/07/29 00:05:57;;;;;;;6.90;3.60;;;19.10;1.00;;;;;;5029455;28;20276;-87
2023/07/29 00:08:23;;;;;;;4.63;3.80;;;19.00;1.00;;;;;;5031457;28;20565;-87
2023/07/29 00:10:48;;;;;;;4.80;3.53;;;19.10;1.00;;;;;;5031174;28;20296;-88
2023/07/29 00:13:14;;;;;;;5.73;5.23;;;19.10;1.00;;;;;;5028814;28;20175;-87
2023/07/29 00:15:39;;;;;;;3.90;3.57;;;19.10;1.00;;;;;;5030437;28;20264;-87
2023/07/29 00:18:05;;;;;;;6.17;3.50;;;19.20;1.00;;;;;;5028969;28;20249;-86
2023/07/29 00:20:30;;;;;;;4.37;3.50;;;19.20;1.00;;;;;;5030916;28;20196;-87
2023/07/29 00:22:57;;;;;;;6.27;3.33;;;19.20;1.00;;;;;;5031268;28;20194;-87
2023/07/29 00:25:23;;;;;;;3.70;3.23;;;19.20;1.00;;;;;;5031471;28;20271;-88
2023/07/29 00:27:49;;;;;;;6.03;3.40;;;19.30;1.00;;;;;;5030163;28;20480;-87
2023/07/29 00:30:15;;;;;;;8.13;3.17;;;19.30;1.00;;;;;;5024133;28;20187;-88
2023/07/29 00:32:40;;;;;;;3.60;3.30;;;19.40;1.00;;;;;;5029751;28;20880;-88
2023/07/29 00:35:06;;;;;;;3.53;3.23;;;19.40;1.00;;;;;;5031160;28;20233;-87
2023/07/29 00:37:32;;;;;;;12.00;3.90;;;19.50;1.00;;;;;;5030845;28;20210;-87
2023/07/29 00:39:58;;;;;;;3.73;2.93;;;19.50;1.00;;;;;;5031290;28;21182;-87
2023/07/29 00:42:24;;;;;;;3.60;3.30;;;19.50;1.00;;;;;;5030770;28;20559;-87
2023/07/29 00:44:49;;;;;;;5.87;3.07;;;19.60;1.00;;;;;;5030272;28;20246;-88
2023/07/29 00:47:16;;;;;;;3.10;2.80;;;19.60;1.00;;;;;;5027233;28;20527;-87
2023/07/29 00:49:45;;;;;;;4.93;3.20;;;19.60;1.00;;;;;;5028640;28;20217;-88
2023/07/29 00:52:12;;;;;;;3.50;3.20;;;19.60;1.00;;;;;;5028532;28;20959;-86
2023/07/29 00:54:40;;;;;;;6.03;3.70;;;19.60;1.00;;;;;;5029036;28;20433;-87
2023/07/29 00:57:08;;;;;;;4.43;3.50;;;19.60;1.00;;;;;;5026664;28;20492;-88
2023/07/29 00:59:38;;;;;;;6.90;3.90;;;19.60;1.00;;;;;;5021679;28;20940;-87
2023/07/29 01:02:04;;;;;;;8.00;3.77;;;19.70;1.00;;;;;;5011888;28;20804;-87
2023/07/29 01:04:29;;;;;;;4.13;3.07;;;19.60;1.00;;;;;;5026937;28;20439;-87
2023/07/29 01:07:14;;;;;;;5.87;2.77;;;19.70;1.00;;;;;;5030070;28;20459;-87
2023/07/29 01:10:09;;;;;;;3.83;3.40;;;19.60;1.00;;;;;;5041524;28;20577;-87
2023/07/29 01:12:47;;;;;;;5.13;2.90;;;19.60;1.00;;;;;;5032341;28;20437;-87
2023/07/29 01:15:35;;;;;;;6.27;2.73;;;19.60;1.00;;;;;;5023907;28;20459;-87
2023/07/29 01:18:37;;;;;;;5.03;3.03;;;19.60;1.00;;;;;;5030010;28;20463;-87
2023/07/29 01:21:04;;;;;;;5.03;3.10;;;19.60;1.00;;;;;;5020914;28;20436;-88
2023/07/29 01:23:34;;;;;;;12.20;3.40;;;19.70;1.00;;;;;;5029535;28;20458;-87
2023/07/29 01:26:00;;;;;;;5.83;2.93;;;19.70;1.00;;;;;;5030016;28;20433;-88
2023/07/29 01:28:26;;;;;;;4.83;3.07;;;19.70;1.00;;;;;;5030615;28;20864;-88
2023/07/29 01:31:07;;;;;;;12.73;3.63;;;19.70;1.00;;;;;;5027403;28;20448;-87
2023/07/29 01:33:42;;;;;;;4.17;3.20;;;19.70;1.00;;;;;;5027462;28;20806;-87
2023/07/29 01:36:19;;;;;;;3.60;3.03;;;19.70;1.00;;;;;;5020424;28;20441;-87
2023/07/29 01:38:45;;;;;;;6.17;3.33;;;19.70;1.00;;;;;;5023777;28;20444;-87
2023/07/29 01:41:11;;;;;;;6.73;4.40;;;19.70;1.00;;;;;;5027795;28;20428;-87
2023/07/29 01:43:43;;;;;;;8.23;3.03;;;19.60;1.00;;;;;;5029961;28;20439;-87
2023/07/29 01:46:13;;;;;;;5.63;3.33;;;19.60;1.00;;;;;;5027564;28;20466;-87
2023/07/29 01:48:39;;;;;;;4.03;3.73;;;19.60;1.00;;;;;;5029044;28;20479;-88
2023/07/29 01:51:05;;;;;;;4.03;3.63;;;19.60;1.00;;;;;;5030044;28;20578;-88
2023/07/29 01:53:31;;;;;;;7.27;4.20;;;19.60;1.00;;;;;;5026659;28;20956;-87
2023/07/29 01:55:57;;;;;;;10.97;3.97;;;19.60;1.00;;;;;;5027231;28;20444;-87
2023/07/29 01:58:23;;;;;;;5.93;4.20;;;19.60;1.00;;;;;;5029800;28;20183;-87
2023/07/29 02:00:48;;;;;;;8.73;3.97;;;19.60;1.00;;;;;;5025536;28;20554;-87
2023/07/29 02:03:14;;;;;;;10.07;3.90;;;19.60;1.00;;;;;;5029363;28;20191;-87
2023/07/29 02:05:40;;;;;;;5.30;3.60;;;19.60;1.00;;;;;;5026906;28;20183;-86
2023/07/29 02:08:05;;;;;;;5.07;3.33;;;19.60;1.00;;;;;;5024964;28;20221;-87
2023/07/29 02:10:31;;;;;;;9.27;3.60;;;19.60;1.00;;;;;;5029068;28;20439;-87
2023/07/29 02:12:56;;;;;;;8.57;3.60;;;19.60;1.00;;;;;;5029625;28;20188;-85
2023/07/29 02:15:22;;;;;;;8.50;4.00;;;19.60;1.00;;;;;;5024817;28;20686;-87
2023/07/29 02:17:50;;;;;;;7.80;4.13;;;19.60;1.00;;;;;;5029159;28;20263;-87
2023/07/29 02:20:15;;;;;;;4.03;3.73;;;19.60;1.00;;;;;;5029326;28;20205;-87
2023/07/29 02:22:41;;;;;;;4.33;3.60;;;19.60;1.00;;;;;;5028886;28;20897;-87
2023/07/29 02:25:07;;;;;;;4.53;3.93;;;19.60;1.00;;;;;;5024163;28;20189;-87
2023/07/29 02:27:33;;;;;;;7.03;4.07;;;19.60;1.00;;;;;;5027981;28;20205;-87
2023/07/29 02:29:58;;;;;;;6.77;4.00;;;19.60;1.00;;;;;;5023715;28;20447;-87
2023/07/29 02:32:24;;;;;;;5.77;4.30;;;19.60;1.00;;;;;;5019827;28;20202;-87
2023/07/29 02:34:50;;;;;;;5.80;4.40;;;19.60;1.00;;;;;;5026604;28;20189;-87
2023/07/29 02:37:15;;;;;;;5.80;4.50;;;19.60;1.00;;;;;;5028147;28;20217;-88
2023/07/29 02:39:41;;;;;;;6.30;4.53;;;19.60;1.30;;;;;;5029531;28;20194;-88
2023/07/29 02:42:06;;;;;;;5.13;4.63;;;19.60;1.00;;;;;;5024996;28;20189;-86
2023/07/29 02:44:35;;;;;;;7.47;5.23;;;19.60;1.00;;;;;;5024861;28;20188;-87
2023/07/29 02:47:00;;;;;;;7.40;5.07;;;19.60;5.00;;;;;;5021260;28;20259;-87
2023/07/29 02:49:26;;;;;;;8.57;4.53;;;19.60;6.10;;;;;;5028458;28;20910;-86
2023/07/29 02:51:51;;;;;;;5.60;4.63;;;19.60;7.00;;;;;;5029567;28;20209;-87
2023/07/29 02:58:23;;;;;;;5.50;4.90;;;19.60;14.00;;;;;;5031623;28;20308;-87
2023/07/29 03:01:30;;;;;;;5.20;4.60;;;19.60;14.10;;;;;;5026380;28;20500;-87
2023/07/29 03:04:03;;;;;;;7.23;5.00;;;19.60;15.90;;;;;;5028818;28;20993;-87
2023/07/29 03:07:21;;;;;;;6.33;4.60;;;19.50;17.40;;;;;;5028448;28;20449;-86
2023/07/29 03:09:56;;;;;;;5.60;4.40;;;19.50;17.70;;;;;;5002583;28;20506;-88
2023/07/29 03:12:56;;;;;;;6.17;5.43;;;19.50;16.40;;;;;;5028881;28;20436;-87
2023/07/29 03:15:50;;;;;;;5.53;4.87;;;19.50;13.90;;;;;;5026916;28;20441;-87
2023/07/29 03:19:06;;;;;;;8.20;4.37;;;19.50;8.90;;;;;;5009617;28;20482;-88
2023/07/29 03:21:42;;;;;;;4.27;3.87;;;19.40;3.00;;;;;;5001151;28;20447;-87
2023/07/29 03:27:41;;;;;;;;;;;;;;;;;;;;;
2023/07/29 03:30:31;;;;;;;4.73;4.23;;;19.30;1.00;;;;;;5032129;28;20439;-87
2023/07/29 03:32:57;;;;;;;6.00;4.70;;;19.30;1.00;;;;;;5030085;28;20445;-87
2023/07/29 03:35:23;;;;;;;5.93;4.23;;;19.20;1.00;;;;;;5029408;28;20430;-87
2023/07/29 03:37:48;;;;;;;5.63;4.23;;;19.20;1.00;;;;;;5031668;28;20214;-87
2023/07/29 03:40:14;;;;;;;7.80;4.43;;;19.20;1.00;;;;;;5031532;28;20189;-87
2023/07/29 03:42:39;;;;;;;8.47;4.23;;;19.10;1.00;;;;;;5031131;28;20220;-87
2023/07/29 03:45:05;;;;;;;5.27;4.70;;;19.10;1.00;;;;;;5031929;28;20223;-88
2023/07/29 03:47:31;;;;;;;4.53;4.07;;;19.10;1.00;;;;;;5038314;28;20352;-87
2023/07/29 03:49:57;;;;;;;5.77;4.53;;;19.10;1.00;;;;;;5028874;28;20963;-87
2023/07/29 03:52:22;;;;;;;4.70;3.93;;;19.00;1.00;;;;;;5029672;28;20205;-87
2023/07/29 03:54:48;;;;;;;4.77;3.90;;;19.00;1.00;;;;;;5019943;28;20194;-87
2023/07/29 03:57:16;;;;;;;5.07;4.57;;;19.00;1.00;;;;;;5029841;28;20203;-88
2023/07/29 03:59:42;;;;;;;6.77;5.03;;;19.00;1.00;;;;;;5031255;28;20203;-87
2023/07/29 04:02:08;;;;;;;6.00;5.20;;;19.00;1.00;;;;;;5026986;28;20435;-87
2023/07/29 04:04:33;;;;;;;4.83;4.23;;;19.00;1.00;;;;;;5024748;28;20480;-87
2023/07/29 04:06:59;;;;;;;6.57;4.77;;;19.00;1.00;;;;;;5028278;28;20308;-87
2023/07/29 04:09:24;;;;;;;8.30;4.67;;;18.90;1.00;;;;;;5026958;28;20211;-87
2023/07/29 04:11:51;;;;;;;7.17;5.50;;;18.90;1.00;;;;;;5027081;28;20246;-87
2023/07/29 04:14:16;;;;;;;6.40;4.90;;;18.90;1.00;;;;;;5029291;28;20197;-87
2023/07/29 04:16:42;;;;;;;4.50;4.10;;;18.90;1.00;;;;;;5031256;28;20988;-88
2023/07/29 04:19:08;;;;;;;6.03;4.27;;;18.90;1.00;;;;;;5024601;28;20581;-87
2023/07/29 04:21:33;;;;;;;6.60;4.93;;;18.90;1.00;;;;;;5031496;28;20449;-87
2023/07/29 04:23:59;;;;;;;5.50;5.00;;;18.90;1.00;;;;;;5027318;28;20193;-87
2023/07/29 04:26:24;;;;;;;6.10;5.30;;;19.00;1.70;;;;;;5030705;28;20213;-88
2023/07/29 04:28:50;;;;;;;6.10;4.53;;;19.00;3.30;;;;;;5025429;28;20582;-87
2023/07/29 04:31:16;;;;;;;6.83;5.40;;;19.00;1.80;;;;;;5029689;28;20189;-88
2023/07/29 04:33:41;;;;;;;6.70;6.10;;;19.10;1.00;;;;;;5031571;28;20190;-87
2023/07/29 04:36:07;;;;;;;6.40;5.80;;;19.10;1.00;;;;;;5028549;28;20206;-87
2023/07/29 04:38:33;;;;;;;8.27;6.50;;;19.10;1.00;;;;;;5029630;28;20194;-87
2023/07/29 04:41:02;;;;;;;7.80;6.10;;;19.10;1.00;;;;;;5028813;28;20188;-87
2023/07/29 04:43:28;;;;;;;8.50;5.87;;;19.20;1.00;;;;;;5027519;28;20436;-87
2023/07/29 04:45:54;;;;;;;11.27;6.00;;;19.20;1.00;;;;;;5029643;28;20528;-87
2023/07/29 04:48:20;;;;;;;6.00;5.40;;;19.20;1.00;;;;;;5022878;28;20547;-88
2023/07/29 04:50:48;;;;;;;8.77;5.73;;;19.30;1.00;;;;;;5026532;28;21246;-87
2023/07/29 04:53:14;;;;;;;8.70;5.90;;;19.30;1.00;;;;;;5028715;28;20452;-87
2023/07/29 04:55:43;;;;;;;9.30;5.93;;;19.30;1.00;;;;;;5045320;28;20469;-87
2023/07/29 04:58:08;;;;;;;11.87;6.30;;;19.30;1.00;;;;;;5021003;28;20286;-87
2023/07/29 05:00:34;;;;;;;6.10;5.50;;;19.40;1.00;;;;;;5029588;28;20867;-87
2023/07/29 05:03:02;;;;;;;6.53;5.83;;;19.40;1.00;;;;;;5018630;28;20604;-87
2023/07/29 05:05:28;;;;;;;7.00;6.03;;;19.40;1.00;;;;;;5022575;28;20197;-87
2023/07/29 05:07:53;;;;;;;6.73;5.37;;;19.40;1.00;;;;;;5024833;28;20483;-87
2023/07/29 05:10:24;;;;;;;7.57;5.40;;;19.40;1.00;;;;;;5025597;28;20186;-87
2023/07/29 05:12:50;;;;;;;8.60;4.87;;;19.40;1.00;;;;;;5030166;28;20847;-87
2023/07/29 05:15:18;;;;;;;6.87;5.10;;;19.40;1.00;;;;;;5027867;28;20440;-87
2023/07/29 05:17:44;;;;;;;5.90;4.83;;;19.30;1.00;;;;;;5024859;28;20246;-87
2023/07/29 05:20:10;;;;;;;6.83;5.17;;;19.30;1.00;;;;;;5027856;28;20462;-88
2023/07/29 05:22:35;;;;;;;12.00;5.23;;;19.40;1.00;;;;;;5024108;28;20739;-87
2023/07/29 05:25:01;;;;;;;5.77;5.27;;;19.30;1.00;;;;;;5028823;28;20209;-87
2023/07/29 05:27:26;;;;;;;7.87;4.97;;;19.40;1.00;;;;;;5029197;28;20564;-87
2023/07/29 05:29:52;;;;;;;4.83;4.43;;;19.40;1.00;;;;;;5028983;28;20244;-87
2023/07/29 05:32:18;;;;;;;9.23;4.60;;;19.40;1.00;;;;;;5028856;28;20189;-87
2023/07/29 05:34:43;;;;;;;5.63;4.70;;;19.30;1.00;;;;;;5026627;28;20264;-87
2023/07/29 05:37:34;;;;;;;6.60;4.90;;;19.30;1.00;;;;;;5030047;28;20212;-87
2023/07/29 05:40:03;;;;;;;9.17;5.20;;;19.40;1.00;;;;;;5027183;28;20187;-88
2023/07/29 05:43:03;;;;;;;5.47;4.53;;;19.30;1.00;;;;;;5028603;28;20445;-87
2023/07/29 05:45:47;;;;;;;;;;;;;;;;;;;;;
2023/07/29 05:48:13;;;;;;;6.17;4.43;;;19.40;1.00;;;;;;5029050;28;20477;-87
2023/07/29 05:50:39;;;;;;;7.07;4.07;;;19.40;1.00;;;;;;5025103;28;20949;-87
2023/07/29 05:53:04;;;;;;;6.00;4.10;;;19.30;1.00;;;;;;5029591;28;20309;-87
2023/07/29 05:55:30;;;;;;;6.77;4.03;;;19.30;1.00;;;;;;5029224;28;20180;-87
2023/07/29 05:57:55;;;;;;;4.70;4.07;;;19.30;1.00;;;;;;5029339;28;20225;-87
2023/07/29 06:00:21;;;;;;;4.73;3.67;;;19.40;1.00;;;;;;5025005;28;20175;-87
2023/07/29 06:02:46;;;;;;;6.20;3.60;;;19.40;1.00;;;;;;5026601;28;20867;-86
2023/07/29 06:05:12;;;;;;;5.33;3.67;;;19.50;1.00;;;;;;5029665;28;20193;-86
2023/07/29 06:07:38;;;;;;;4.60;3.40;;;19.60;1.00;;;;;;5024973;28;20255;-86
2023/07/29 06:10:03;;;;;;;4.57;3.80;;;19.80;99.90;;;;;;5029178;28;20666;-86
2023/07/29 06:12:29;;;;;;;4.60;3.23;;;20.20;99.90;;;;;;5027891;28;20243;-86
2023/07/29 06:14:54;;;;;;;6.77;3.47;;;20.60;1.00;;;;;;5021318;28;20187;-87
2023/07/29 06:17:20;;;;;;;7.20;3.37;;;20.80;92.00;;;;;;5021098;28;20261;-86
2023/07/29 06:19:45;;;;;;;4.70;3.07;;;20.90;1.00;;;;;;5026945;28;20267;-86
2023/07/29 06:22:11;;;;;;;5.70;3.00;;;21.00;99.90;;;;;;5028343;28;20845;-87
2023/07/29 06:24:37;;;;;;;3.90;3.00;;;21.30;99.90;;;;;;5026461;28;20251;-86
2023/07/29 06:27:03;;;;;;;4.63;3.40;;;21.40;99.90;;;;;;5028204;28;20215;-87
2023/07/29 06:29:28;;;;;;;5.97;3.40;;;21.40;1.00;;;;;;5031159;28;20185;-86
2023/07/29 06:31:54;;;;;;;4.03;3.00;;;21.50;1.00;;;;;;5034270;28;20849;-87
2023/07/29 06:34:20;;;;;;;8.43;2.67;;;21.60;99.90;;;;;;5028856;28;20217;-87
2023/07/29 06:36:45;;;;;;;4.53;2.60;;;22.20;99.90;;;;;;5032752;28;20479;-87
2023/07/29 06:39:11;;;;;;;4.53;2.60;;;22.60;37.00;;;;;;5033781;28;20674;-87
2023/07/29 06:41:36;;;;;;;3.33;2.03;;;22.90;1.00;;;;;;5034295;28;20187;-86
2023/07/29 06:44:02;;;;;;;5.97;2.60;;;23.20;99.90;;;;;;5033937;28;20216;-89
2023/07/29 06:46:28;;;;;;;3.93;2.00;;;23.20;92.20;;;;;;5031478;28;20201;-90
2023/07/29 06:48:53;;;;;;;6.07;2.67;;;23.30;39.30;;;;;;5025888;28;20200;-90
2023/07/29 06:51:19;;;;;;;2.60;2.07;;;23.50;1.00;;;;;;5032054;28;20715;-90
2023/07/29 06:53:45;;;;;;;4.50;2.13;;;24.90;1.00;;;;;;5031491;28;20297;-90
2023/07/29 06:56:10;;;;;;;5.60;2.20;;;27.80;99.90;;;;;;5030087;28;20216;-88
2023/07/29 06:58:36;;;;;;;2.80;1.37;;;32.00;99.90;;;;;;5023212;28;20702;-89
2023/07/29 07:01:03;;;;;;;6.17;1.93;;;34.90;99.90;;;;;;5031896;28;20680;-89
2023/07/29 07:03:28;;;;;;;3.43;1.53;;;34.30;99.90;;;;;;5028799;28;20636;-89
2023/07/29 07:05:54;;;;;;;3.70;1.83;;;35.90;99.90;;;;;;5028880;28;20490;-89
2023/07/29 07:08:19;;;;;;;2.80;1.20;;;39.20;1.00;;;;;;5029024;28;20208;-89
2023/07/29 07:10:47;;;;;;;1.70;1.20;;;41.90;1.00;;;;;;5026320;28;20190;-90
2023/07/29 07:13:12;;;;;;;5.30;1.33;;;44.80;1.00;;;;;;5023262;28;20248;-90
2023/07/29 07:15:38;;;;;;;3.20;1.27;;;47.30;1.00;;;;;;5030921;28;20435;-90
2023/07/29 07:18:03;;;;;;;2.90;1.80;;;48.70;1.00;;;;;;5028568;28;20201;-90
2023/07/29 07:20:29;;;;;;;2.43;1.53;;;45.70;99.90;;;;;;5029473;28;20651;-89
2023/07/29 07:22:55;;;;;;;1.83;1.63;;;43.10;1.00;;;;;;5032372;28;20213;-88
2023/07/29 07:25:21;;;;;;;2.43;1.63;;;40.40;1.00;;;;;;5031720;28;20186;-89
2023/07/29 07:27:46;;;;;;;1.80;1.70;;;40.80;1.00;;;;;;5030756;28;21185;-89
2023/07/29 07:30:12;;;;;;;3.23;1.70;;;40.90;1.00;;;;;;5022414;28;20651;-87
2023/07/29 07:32:37;;;;;;;6.03;1.43;;;40.40;1.00;;;;;;5033539;28;20186;-88
2023/07/29 07:35:04;;;;;;;2.70;1.17;;;41.10;1.00;;;;;;5029077;28;20182;-87
2023/07/29 07:37:29;;;;;;;3.67;1.40;;;42.30;1.00;;;;;;5031021;28;20213;-87
2023/07/29 07:39:55;;;;;;;1.67;1.33;;;44.20;1.00;;;;;;5032509;28;20463;-87
2023/07/29 07:42:20;;;;;;;2.03;1.23;;;46.30;1.00;;;;;;5030384;28;20174;-88
2023/07/29 07:44:46;;;;;;;3.87;1.03;;;48.60;1.00;;;;;;5032684;28;20173;-88
2023/07/29 07:47:11;;;;;;;2.53;1.00;;;48.40;1.00;;;;;;5025560;28;20202;-87
2023/07/29 07:49:37;;;;;;;1.87;1.20;;;48.10;1.00;;;;;;5030773;28;20231;-87
2023/07/29 07:52:02;;;;;;;2.13;1.00;;;47.60;1.00;;;;;;5031299;28;20268;-88
2023/07/29 07:54:28;;;;;;;2.23;0.93;;;47.50;1.00;;;;;;5031564;28;20200;-88
2023/07/29 07:56:54;;;;;;;1.77;1.00;;;46.10;1.00;;;;;;5024400;28;20205;-89
2023/07/29 07:59:19;;;;;;;1.57;0.90;;;47.90;1.00;;;;;;5030273;28;20254;-89
2023/07/29 08:01:45;;;;;;;2.10;0.80;;;49.10;1.00;;;;;;5027544;28;20565;-88
2023/07/29 08:04:10;;;;;;;1.17;0.97;;;50.30;99.90;;;;;;5024608;28;20189;-89
2023/07/29 08:06:36;;;;;;;3.53;0.90;;;50.80;99.90;;;;;;5029751;28;20218;-88
2023/07/29 08:09:01;;;;;;;1.73;0.90;;;51.00;99.90;;;;;;5026022;28;20198;-88
2023/07/29 08:11:27;;;;;;;1.93;0.87;;;51.90;99.90;;;;;;5029232;28;20558;-87
2023/07/29 08:13:52;;;;;;;1.00;0.73;;;50.90;99.90;;;;;;5031045;28;20200;-88
2023/07/29 08:16:18;;;;;;;1.00;0.83;;;50.50;99.90;;;;;;5026385;28;20205;-88
2023/07/29 08:18:43;;;;;;;2.50;1.00;;;49.80;99.90;;;;;;5030558;28;20569;-87
2023/07/29 08:21:09;;;;;;;1.00;0.70;;;49.60;99.90;;;;;;5025011;28;20177;-87
2023/07/29 08:23:36;;;;;;;1.07;0.83;;;50.30;99.90;;;;;;5028127;28;20186;-88
2023/07/29 08:26:04;;;;;;;1.60;0.90;;;49.50;99.90;;;;;;5027958;28;20186;-87
2023/07/29 08:28:35;;;;;;;2.70;1.03;;;46.80;1.00;;;;;;5023132;28;20440;-88
2023/07/29 08:31:01;;;;;;;1.10;0.90;;;44.20;1.00;;;;;;5026739;28;20945;-86
2023/07/29 08:33:27;;;;;;;1.20;0.70;;;43.70;1.00;;;;;;5020366;28;20450;-86
2023/07/29 08:35:53;;;;;;;1.40;0.80;;;42.30;1.00;;;;;;5026783;28;20265;-86
2023/07/29 08:38:19;;;;;;;2.07;0.90;;;41.00;1.00;;;;;;5027373;28;20544;-87
2023/07/29 08:40:56;;;;;;;1.63;0.90;;;38.70;1.00;;;;;;5019220;28;20237;-86
2023/07/29 08:43:30;;;;;;;1.30;0.90;;;36.70;1.00;;;;;;5040905;28;20437;-86
2023/07/29 08:45:57;;;;;;;1.33;1.00;;;35.10;1.00;;;;;;5023926;28;20438;-86
2023/07/29 08:48:31;;;;;;;2.40;1.20;;;37.60;1.00;;;;;;5023663;28;21146;-86
2023/07/29 08:50:59;;;;;;;2.50;1.10;;;39.80;1.00;;;;;;5026215;28;20441;-86
2023/07/29 08:53:25;;;;;;;2.83;1.10;;;38.90;1.00;;;;;;5022549;28;20436;-86
2023/07/29 08:55:51;;;;;;;1.30;0.97;;;38.70;1.00;;;;;;5028781;28;20433;-86
2023/07/29 08:58:17;;;;;;;1.10;0.90;;;37.20;1.00;;;;;;5027379;28;20550;-86
2023/07/29 09:00:43;;;;;;;1.97;0.80;;;35.50;1.00;;;;;;5025839;28;20286;-85
2023/07/29 09:03:08;;;;;;;1.83;1.00;;;34.40;1.00;;;;;;5022516;28;20218;-85
2023/07/29 09:05:34;;;;;;;1.50;1.00;;;33.50;1.00;;;;;;5022835;28;20508;-84
2023/07/29 09:08:02;;;;;;;3.03;1.50;;;32.70;1.00;;;;;;5024672;28;20619;-84
2023/07/29 09:10:30;;;;;;;3.50;1.37;;;32.00;1.00;;;;;;5026558;28;20933;-84
2023/07/29 09:12:56;;;;;;;2.03;1.20;;;31.90;99.90;;;;;;5028161;28;20475;-85
2023/07/29 09:15:29;;;;;;;2.37;0.90;;;33.80;67.90;;;;;;5022629;28;20436;-85
2023/07/29 09:17:57;;;;;;;3.70;1.37;;;33.60;66.80;;;;;;5022705;28;20608;-85
2023/07/29 09:20:26;;;;;;;5.23;1.30;;;33.30;68.10;;;;;;5027214;28;20806;-85
2023/07/29 09:22:54;;;;;;;2.70;0.90;;;32.80;68.60;;;;;;5025117;28;20441;-85
2023/07/29 09:25:28;;;;;;;1.30;1.10;;;33.00;70.70;;;;;;5029818;28;20457;-85
2023/07/29 09:28:07;;;;;;;1.30;0.90;;;33.80;74.60;;;;;;5029139;28;21027;-87
2023/07/29 09:30:32;;;;;;;1.73;0.90;;;34.20;75.70;;;;;;5030006;28;20941;-85
2023/07/29 09:32:58;;;;;;;3.27;1.23;;;33.70;76.90;;;;;;5029562;28;20428;-85
2023/07/29 09:35:28;;;;;;;1.33;0.90;;;33.80;77.70;;;;;;5029472;28;20550;-85
2023/07/29 09:37:53;;;;;;;2.70;1.07;;;33.80;78.20;;;;;;5029134;28;20520;-85
2023/07/29 09:40:21;;;;;;;4.13;1.03;;;34.80;84.20;;;;;;5022729;28;20542;-84
2023/07/29 09:42:49;;;;;;;3.20;1.20;;;34.50;83.10;;;;;;5017113;28;20575;-85
2023/07/29 09:45:23;;;;;;;1.40;1.03;;;34.00;81.50;;;;;;5021890;28;20834;-86
2023/07/29 09:47:52;;;;;;;2.00;1.40;;;33.60;80.90;;;;;;5020046;28;20462;-85
2023/07/29 09:50:18;;;;;;;1.30;1.00;;;33.00;79.70;;;;;;5024342;28;20513;-85
2023/07/29 09:52:44;;;;;;;1.83;1.03;;;33.30;82.90;;;;;;5029562;28;21013;-85
2023/07/29 09:55:12;;;;;;;1.27;0.90;;;33.30;83.90;;;;;;5027707;28;20189;-85
2023/07/29 09:57:38;;;;;;;1.73;0.97;;;34.10;88.70;;;;;;5019695;28;20465;-85
2023/07/29 10:00:10;;;;;;;1.43;1.00;;;34.00;87.40;;;;;;5025696;28;20482;-85
2023/07/29 10:02:37;;;;;;;1.77;0.87;;;33.10;84.60;;;;;;5027932;28;20413;-85
2023/07/29 10:05:06;;;;;;;1.80;0.97;;;32.30;83.80;;;;;;5027398;28;20808;-85
2023/07/29 10:07:32;;;;;;;3.00;1.10;;;32.30;85.50;;;;;;5030805;28;20487;-85
2023/07/29 10:09:59;;;;;;;3.03;0.97;;;32.80;89.00;;;;;;5031611;28;20417;-85
2023/07/29 10:12:25;;;;;;;2.00;1.47;;;32.00;86.50;;;;;;5023109;28;20519;-86
2023/07/29 10:14:52;;;;;;;2.70;1.37;;;31.30;87.40;;;;;;5023144;28;20937;-86
2023/07/29 10:17:20;;;;;;;2.00;1.00;;;30.40;90.20;;;;;;5030288;28;20437;-86
2023/07/29 10:19:47;;;;;;;2.80;1.20;;;29.90;91.80;;;;;;5015595;28;20488;-85
2023/07/29 10:22:14;;;;;;;2.40;1.40;;;29.50;95.00;;;;;;5020925;28;20440;-86
2023/07/29 10:24:45;;;;;;;1.70;1.47;;;30.00;97.50;;;;;;5021906;28;20451;-86
2023/07/29 10:27:13;;;;;;;1.77;1.10;;;30.90;99.90;;;;;;5024718;28;20457;-86
2023/07/29 10:29:42;;;;;;;2.37;1.10;;;31.20;99.50;;;;;;5028949;28;20527;-86
2023/07/29 10:32:09;;;;;;;2.03;1.23;;;32.10;99.90;;;;;;5028939;28;20440;-86
2023/07/29 10:34:36;;;;;;;2.27;1.27;;;33.40;99.90;;;;;;5028505;28;21015;-86
2023/07/29 10:37:02;;;;;;;2.90;1.33;;;34.80;99.90;;;;;;5022236;28;20491;-85
2023/07/29 10:39:32;;;;;;;2.67;1.10;;;36.40;99.90;;;;;;5027460;28;21000;-87
2023/07/29 10:42:00;;;;;;;2.13;1.33;;;37.40;1.00;;;;;;5021865;28;20178;-86
2023/07/29 10:44:41;;;;;;;1.40;1.00;;;38.00;1.00;;;;;;5027809;28;20542;-86
2023/07/29 10:47:17;;;;;;;2.23;1.17;;;36.60;1.00;;;;;;5024692;28;20564;-85
2023/07/29 10:49:44;;;;;;;2.10;1.27;;;35.20;1.00;;;;;;5027225;28;20476;-85
2023/07/29 10:52:17;;;;;;;1.70;1.43;;;34.10;1.00;;;;;;5015000;28;20500;-85
2023/07/29 10:54:47;;;;;;;2.40;1.33;;;33.10;1.00;;;;;;5023007;28;20494;-85
2023/07/29 10:57:15;;;;;;;2.13;1.10;;;32.00;1.00;;;;;;5019230;28;21048;-85
2023/07/29 10:59:41;;;;;;;3.40;1.40;;;31.10;99.90;;;;;;5018820;28;20473;-85
2023/07/29 11:02:19;;;;;;;2.60;1.17;;;30.30;93.90;;;;;;5029724;28;20420;-84
2023/07/29 11:04:50;;;;;;;1.83;1.07;;;30.30;95.20;;;;;;5026008;28;20445;-85
2023/07/29 11:07:15;;;;;;;1.93;1.50;;;30.20;97.30;;;;;;5024811;28;20543;-85
2023/07/29 11:09:56;;;;;;;2.50;1.20;;;30.00;98.60;;;;;;5028256;28;20872;-85
2023/07/29 11:12:47;;;;;;;6.00;1.40;;;30.00;99.90;;;;;;5026617;28;20205;-85
2023/07/29 11:15:27;;;;;;;2.67;1.47;;;29.80;99.90;;;;;;5012454;28;20465;-85
2023/07/29 11:17:54;;;;;;;1.97;1.27;;;29.90;99.90;;;;;;5022062;28;20491;-85
2023/07/29 11:20:25;;;;;;;1.60;1.20;;;30.30;99.90;;;;;;5028897;28;20475;-85
2023/07/29 11:22:52;;;;;;;2.23;1.40;;;30.70;99.90;;;;;;5028691;28;20436;-85
2023/07/29 11:25:19;;;;;;;1.57;1.33;;;31.50;99.90;;;;;;5028861;28;20442;-85
2023/07/29 11:27:45;;;;;;;3.00;1.30;;;31.60;99.90;;;;;;5022743;28;20453;-85
2023/07/29 11:30:13;;;;;;;1.60;1.10;;;32.00;99.90;;;;;;5029047;28;20514;-85
2023/07/29 11:32:40;;;;;;;1.23;1.00;;;32.70;99.90;;;;;;5025324;28;20433;-85
2023/07/29 11:35:12;;;;;;;2.20;1.40;;;34.20;99.90;;;;;;5023224;28;20519;-85
2023/07/29 11:37:38;;;;;;;1.60;1.20;;;34.70;99.90;;;;;;5020716;28;20465;-85
2023/07/29 11:40:06;;;;;;;5.93;1.20;;;35.30;99.90;;;;;;5024102;28;21073;-85
2023/07/29 11:42:33;;;;;;;4.77;1.50;;;36.10;99.90;;;;;;5027532;28;20440;-84
2023/07/29 11:44:59;;;;;;;1.50;1.00;;;35.50;99.60;;;;;;5029205;28;20780;-84
2023/07/29 11:47:25;;;;;;;2.03;1.40;;;35.80;99.20;;;;;;5028374;28;20506;-84
2023/07/29 11:49:51;;;;;;;1.47;1.13;;;36.40;99.20;;;;;;5028012;28;20657;-84
2023/07/29 11:52:19;;;;;;;1.33;1.13;;;36.80;98.20;;;;;;5026172;28;20440;-83
2023/07/29 11:54:46;;;;;;;1.10;0.90;;;37.20;97.90;;;;;;5031227;28;20496;-83
2023/07/29 11:57:13;;;;;;;1.63;1.30;;;37.50;99.90;;;;;;5028010;28;20457;-83
2023/07/29 11:59:46;;;;;;;2.03;1.30;;;37.80;99.90;;;;;;5031773;28;20473;-83
2023/07/29 12:02:17;;;;;;;2.57;1.10;;;38.20;99.90;;;;;;5037124;28;20466;-85
2023/07/29 12:04:44;;;;;;;1.70;1.33;;;38.50;1.00;;;;;;5033345;28;20436;-84
2023/07/29 12:07:10;;;;;;;1.50;1.30;;;38.90;1.00;;;;;;5032229;28;20593;-82
2023/07/29 12:09:37;;;;;;;1.60;1.30;;;38.90;1.00;;;;;;5028238;28;21027;-81
2023/07/29 12:12:04;;;;;;;1.97;1.37;;;38.30;1.00;;;;;;5037922;28;20428;-82
2023/07/29 12:14:30;;;;;;;1.93;1.50;;;38.00;1.00;;;;;;5034535;28;20437;-82
2023/07/29 12:16:59;;;;;;;4.03;1.23;;;37.30;1.00;;;;;;5033695;28;20464;-84
2023/07/29 12:19:25;;;;;;;1.70;1.33;;;;;;;;;;5028716;28;20460;-87
2023/07/29 12:21:51;;;;;;;1.87;1.63;;;;;;;;;;5029092;28;20475;-85
2023/07/29 12:24:16;;;;;;;2.70;1.33;;;34.50;1.00;;;;;;5029593;28;20848;-85
2023/07/29 12:26:42;;;;;;;1.97;1.50;;;33.80;99.90;;;;;;5027400;28;20492;-87
2023/07/29 12:29:12;;;;;;;2.00;1.77;;;32.90;99.90;;;;;;5028620;28;20201;-86
2023/07/29 12:31:38;;;;;;;5.30;1.17;;;32.20;99.90;;;;;;5026110;28;20273;-86
2023/07/29 12:34:04;;;;;;;2.93;1.53;;;31.50;88.30;;;;;;5031104;28;20524;-86
2023/07/29 12:36:47;;;;;;;2.60;1.53;;;30.80;86.80;;;;;;5028764;28;20214;-86
2023/07/29 12:39:36;;;;;;;2.07;1.20;;;30.20;90.80;;;;;;5028335;28;20209;-85
2023/07/29 12:42:03;;;;;;;2.30;1.43;;;29.80;94.80;;;;;;5030008;28;20460;-86
2023/07/29 12:44:34;;;;;;;1.70;1.40;;;29.20;98.30;;;;;;5025965;28;20445;-86
2023/07/29 12:47:02;;;;;;;2.93;1.73;;;28.90;99.90;;;;;;5028715;28;20463;-85
2023/07/29 12:49:29;;;;;;;5.10;2.10;;;28.50;99.90;;;;;;5028325;28;20440;-86
2023/07/29 12:51:55;;;;;;;3.03;2.27;;;28.10;99.90;;;;;;5030405;28;20436;-85
2023/07/29 12:54:20;;;;;;;2.30;1.40;;;27.60;99.90;;;;;;5028862;28;20437;-85
2023/07/29 12:56:46;;;;;;;3.83;1.93;;;27.30;99.90;;;;;;5025690;28;20507;-85
2023/07/29 12:59:11;;;;;;;2.20;1.70;;;27.00;99.90;;;;;;5029454;28;20300;-85
2023/07/29 13:01:37;;;;;;;3.40;1.63;;;26.50;99.90;;;;;;5022392;28;20174;-85
2023/07/29 13:04:03;;;;;;;2.30;2.00;;;26.40;99.90;;;;;;5028146;28;20182;-85
2023/07/29 13:06:28;;;;;;;4.07;1.80;;;26.20;99.90;;;;;;5026393;28;20196;-85
2023/07/29 13:08:54;;;;;;;2.80;2.10;;;25.90;99.90;;;;;;5030659;28;20190;-85